Ana Sayfa
METAR-TAF:

METAR-TAF

Havaalanları :

Wings Field

Philadelphia / Blue Bell, Pensilvanya, Amerika Birleşik Devletleri

Enlem: 40-08-15N, Boylam: 075-15-54W, yükseklik: 92 m

Güncel hava durumu gözlemi

Rapor saat 19:35 UTC de 15 dakika önce yapıldı.
Rüzgar batı/kuzeybatıdan 8 kt
Sıcaklık 21°C
Nem 43%
Basınç 1014 hPa
Görüş mesafesi: 16.1 km
7000 ft yükseklikte çok bulutlu

METAR: KLOM 021935Z AUTO 29008KT 10SM OVC070 21/08 A2995 RMK AO2 T02070085

Saat: 15:50 (19:50 UTC)


TAF: eksik

4.000'den fazla havaalanı için hava durumu gözlemleri ve tahminleri (METAR ve TAF raporları).

Kullanılabilir istasyonlar harita üzerinde sarı ve kırmızı noktalarla gösterilir.

İstasyonun adını görmek için fareyi noktanın üzerinde gezdirin.

Sonrasında hava gözlem ve tahminlerini görmek için tıklayın.

Haritayı değiştirmek için: yaklaştırmak için siyah artı işaretli yeşil düğmeye ve uzaklaştırmak için de eksi işaretli düğmeye hızla tıklayın; bitişik haritalar için yeşil okları kullanın.


METAR-TAF: